Terminal Aerodrome Forecast
Issued by NWS Omaha/Valley, NE

Home | Current Version | Previous Version | Text Only | Print | Product List | Glossary On
Versions: 1 2 3 4 5 6 7 8 9 10 11 12 13 14 15 16 17 18 19 20 21 22 23 24 25 26 27 28 29 30 31 32 33 34 35 36 37 38 39 40 41 42 43 44 45
000
FTUS43 KOAX 220540
TAFLNK
TAF
KLNK 220540Z 2206/2306 17013KT 4SM -DZ BR OVC007
     FM220900 17013KT 4SM -RA BR OVC004
      TEMPO 2211/2213 1 1/2SM RA
     FM221800 31010KT 5SM BR OVC008
     FM230300 32014KT 3SM RASN BR OVC008=

USA.gov is the U.S. government's official web portal to all federal, state and local government web resources and services.